createdAt,value
2017-11-09T00:00:53.257Z,18.26
2017-11-09T00:02:06.548Z,18.14
2017-11-09T00:03:19.342Z,18.18
2017-11-09T00:04:31.046Z,18.1
2017-11-09T00:05:43.294Z,18.18
2017-11-09T00:06:56.024Z,18.1
2017-11-09T00:08:09.364Z,18.26
2017-11-09T00:09:22.134Z,18.17
2017-11-09T00:10:34.904Z,18.17
2017-11-09T00:11:48.238Z,18.07
2017-11-09T00:13:00.439Z,18.1
2017-11-09T00:14:13.762Z,18.14
2017-11-09T00:15:26.574Z,18.14
2017-11-09T00:16:39.909Z,18.11
2017-11-09T00:17:52.697Z,18.2
2017-11-09T00:19:05.470Z,18.14
2017-11-09T00:20:18.734Z,18.14
2017-11-09T00:21:32.076Z,18.12
2017-11-09T00:22:44.868Z,18.14
2017-11-09T00:23:57.674Z,18.17
2017-11-09T00:25:10.435Z,18.17
2017-11-09T00:26:23.215Z,18.11
2017-11-09T00:27:35.484Z,18.2
2017-11-09T00:28:48.826Z,18.17
2017-11-09T00:30:02.186Z,18.25
2017-11-09T00:31:14.966Z,18.18
2017-11-09T00:32:27.261Z,18.15
2017-11-09T00:33:40.020Z,18.23
2017-11-09T00:34:52.810Z,18.17
2017-11-09T00:36:05.652Z,18.14
2017-11-09T00:37:18.553Z,18.12
2017-11-09T00:38:31.322Z,18.08
2017-11-09T00:39:44.120Z,18.14
2017-11-09T00:40:56.930Z,18.12
2017-11-09T00:42:09.730Z,18.12
2017-11-09T00:43:22.023Z,18.15
2017-11-09T00:44:34.241Z,18.03
2017-11-09T00:45:47.017Z,18.12
2017-11-09T00:46:59.813Z,18.1
2017-11-09T00:48:12.722Z,18.15
2017-11-09T00:49:26.040Z,18.14
2017-11-09T00:50:39.332Z,18.23
2017-11-09T00:51:52.655Z,18.29
2017-11-09T00:53:04.933Z,18.26
2017-11-09T00:54:17.179Z,18.26
2017-11-09T00:55:30.505Z,18.29
2017-11-09T00:56:43.867Z,18.27
2017-11-09T00:57:56.162Z,18.35
2017-11-09T00:59:08.960Z,18.37
2017-11-09T01:00:20.661Z,18.3
2017-11-09T01:01:33.459Z,18.26
2017-11-09T01:02:46.806Z,18.2
2017-11-09T01:03:59.036Z,18.23
2017-11-09T01:05:11.838Z,18.21
2017-11-09T01:06:24.101Z,18.27
2017-11-09T01:07:37.476Z,18.27
2017-11-09T01:08:50.272Z,18.23
2017-11-09T01:10:03.788Z,18.15
2017-11-09T01:11:16.096Z,18.23
2017-11-09T01:12:28.893Z,18.21
2017-11-09T01:13:41.666Z,18.29
2017-11-09T01:14:54.433Z,18.21
2017-11-09T01:16:07.274Z,18.18
2017-11-09T01:17:19.547Z,18.17
2017-11-09T01:18:32.332Z,18.12
2017-11-09T01:19:44.578Z,18.18
2017-11-09T01:20:56.840Z,18.17
2017-11-09T01:22:10.180Z,18.2
2017-11-09T01:23:22.969Z,18.18
2017-11-09T01:24:35.740Z,18.17
2017-11-09T01:25:49.064Z,18.2
2017-11-09T01:27:02.417Z,18.18
2017-11-09T01:28:15.181Z,18.26
2017-11-09T01:29:28.493Z,18.14
2017-11-09T01:30:41.354Z,18.21
2017-11-09T01:31:54.200Z,18.3
2017-11-09T01:33:06.959Z,18.23
2017-11-09T01:34:19.789Z,18.2
2017-11-09T01:35:32.045Z,18.15
2017-11-09T01:36:44.312Z,18.15
2017-11-09T01:37:57.150Z,18.15
2017-11-09T01:39:09.930Z,18.15
2017-11-09T01:40:23.302Z,18.14
2017-11-09T01:41:36.652Z,18.14
2017-11-09T01:42:49.451Z,18.11
2017-11-09T01:44:02.465Z,18.11
2017-11-09T01:45:15.481Z,18.18
2017-11-09T01:46:28.277Z,18.08
2017-11-09T01:47:41.644Z,18.12
2017-11-09T01:48:54.976Z,18.25
2017-11-09T01:50:07.792Z,18.15
2017-11-09T01:51:20.613Z,18.08
2017-11-09T01:52:32.316Z,18.14
2017-11-09T01:53:45.113Z,18.21
2017-11-09T01:54:57.335Z,18.14
2017-11-09T01:56:09.604Z,18.2
2017-11-09T01:57:22.425Z,18.29
2017-11-09T01:58:35.227Z,18.35
2017-11-09T01:59:47.500Z,18.26
2017-11-09T02:00:59.762Z,18.23
2017-11-09T02:02:12.020Z,18.2
2017-11-09T02:03:24.814Z,18.27
2017-11-09T02:04:37.063Z,18.26
2017-11-09T02:05:48.818Z,18.32
2017-11-09T02:07:02.206Z,18.36
2017-11-09T02:08:14.476Z,18.35
2017-11-09T02:09:27.299Z,18.35
2017-11-09T02:10:40.639Z,18.35
2017-11-09T02:11:53.991Z,18.35
2017-11-09T02:13:07.307Z,18.37
2017-11-09T02:14:20.069Z,18.35
2017-11-09T02:15:32.890Z,18.33
2017-11-09T02:16:46.253Z,18.35
2017-11-09T02:17:59.059Z,18.29
2017-11-09T02:19:11.822Z,18.42
2017-11-09T02:20:25.101Z,18.37
2017-11-09T02:21:37.926Z,18.33
2017-11-09T02:22:50.737Z,18.3
2017-11-09T02:24:03.224Z,18.3
2017-11-09T02:25:16.028Z,18.48
2017-11-09T02:26:28.298Z,18.39
2017-11-09T02:27:41.650Z,18.45
2017-11-09T02:28:54.449Z,18.39
2017-11-09T02:30:07.794Z,18.39
2017-11-09T02:31:20.607Z,18.35
2017-11-09T02:32:33.964Z,18.37
2017-11-09T02:33:47.347Z,18.44
2017-11-09T02:35:00.644Z,18.47
2017-11-09T02:36:13.475Z,18.36
2017-11-09T02:37:27.035Z,18.36
2017-11-09T02:38:39.838Z,18.41
2017-11-09T02:39:53.197Z,18.39
2017-11-09T02:41:05.665Z,18.42
2017-11-09T02:42:19.020Z,18.42
2017-11-09T02:43:31.837Z,18.35
2017-11-09T02:44:44.095Z,18.41
2017-11-09T02:45:56.384Z,18.41
2017-11-09T02:47:08.630Z,18.39
2017-11-09T02:48:20.878Z,18.44
2017-11-09T02:49:34.254Z,18.36
2017-11-09T02:50:47.085Z,18.54
2017-11-09T02:51:59.364Z,18.51
2017-11-09T02:53:12.700Z,18.42
2017-11-09T02:54:26.081Z,18.41
2017-11-09T02:55:39.447Z,18.37
2017-11-09T02:56:52.225Z,18.33
2017-11-09T02:58:04.489Z,18.37
2017-11-09T02:59:16.947Z,18.3
2017-11-09T03:00:30.662Z,18.3
2017-11-09T03:01:42.387Z,18.27
2017-11-09T03:02:55.714Z,18.23
2017-11-09T03:04:09.036Z,18.25
2017-11-09T03:05:20.757Z,18.26
2017-11-09T03:06:33.600Z,18.29
2017-11-09T03:07:45.306Z,18.21
2017-11-09T03:08:58.073Z,18.15
2017-11-09T03:10:10.847Z,18.15
2017-11-09T03:11:23.640Z,18.15
2017-11-09T03:12:36.473Z,18.25
2017-11-09T03:13:49.291Z,18.14
2017-11-09T03:15:02.834Z,18.21
2017-11-09T03:16:15.660Z,18.21
2017-11-09T03:17:27.916Z,18.14
2017-11-09T03:18:40.164Z,18.17
2017-11-09T03:19:52.955Z,18.11
2017-11-09T03:21:05.939Z,18.15
2017-11-09T03:22:18.194Z,18.15
2017-11-09T03:23:31.566Z,18.11
2017-11-09T03:24:44.845Z,18.14
2017-11-09T03:25:57.609Z,18.11
2017-11-09T03:27:11.081Z,18.11
2017-11-09T03:28:24.297Z,18.12
2017-11-09T03:29:37.604Z,18.02
2017-11-09T03:30:49.892Z,18.11
2017-11-09T03:32:02.840Z,17.97
2017-11-09T03:33:15.103Z,18
2017-11-09T03:34:27.916Z,17.93
2017-11-09T03:35:40.651Z,17.96
2017-11-09T03:36:53.476Z,17.96
2017-11-09T03:38:05.767Z,17.97
2017-11-09T03:39:19.080Z,17.96
2017-11-09T03:40:31.867Z,17.96
2017-11-09T03:41:45.239Z,17.96
2017-11-09T03:42:56.969Z,17.93
2017-11-09T03:44:09.738Z,18
2017-11-09T03:45:23.068Z,17.96
2017-11-09T03:46:35.877Z,17.96
2017-11-09T03:47:48.685Z,17.99
2017-11-09T03:49:01.495Z,17.9
2017-11-09T03:50:13.226Z,17.93
2017-11-09T03:51:26.788Z,17.86
2017-11-09T03:52:39.052Z,17.89
2017-11-09T03:53:51.835Z,17.9
2017-11-09T03:55:05.215Z,17.82
2017-11-09T03:56:18.041Z,17.87
2017-11-09T03:57:31.383Z,17.82
2017-11-09T03:58:44.143Z,17.78
2017-11-09T03:59:56.945Z,17.86
2017-11-09T04:01:10.255Z,17.75
2017-11-09T04:02:23.586Z,17.82
2017-11-09T04:03:36.363Z,17.82
2017-11-09T04:04:48.593Z,17.79
2017-11-09T04:06:01.385Z,17.78
2017-11-09T04:07:13.663Z,17.77
2017-11-09T04:08:25.920Z,17.79
2017-11-09T04:09:38.188Z,17.77
2017-11-09T04:10:50.989Z,17.81
2017-11-09T04:12:03.240Z,17.87
2017-11-09T04:13:16.058Z,17.82
2017-11-09T04:14:29.405Z,17.87
2017-11-09T04:15:42.421Z,17.74
2017-11-09T04:16:55.291Z,17.81
2017-11-09T04:18:08.075Z,17.79
2017-11-09T04:19:20.867Z,17.79
2017-11-09T04:20:33.892Z,17.75
2017-11-09T04:21:46.647Z,17.7
2017-11-09T04:22:58.941Z,17.7
2017-11-09T04:24:11.745Z,17.66
2017-11-09T04:25:24.578Z,17.7
2017-11-09T04:26:36.836Z,17.71
2017-11-09T04:27:48.640Z,17.66
2017-11-09T04:29:01.940Z,17.74
2017-11-09T04:30:14.762Z,17.72
2017-11-09T04:31:28.141Z,17.68
2017-11-09T04:32:41.436Z,17.7
2017-11-09T04:33:54.730Z,17.77
2017-11-09T04:35:07.167Z,17.81
2017-11-09T04:36:20.501Z,17.77
2017-11-09T04:37:33.285Z,17.84
2017-11-09T04:38:45.706Z,17.75
2017-11-09T04:39:57.944Z,17.79
2017-11-09T04:41:09.692Z,17.79
2017-11-09T04:42:23.003Z,17.71
2017-11-09T04:43:36.323Z,17.62
2017-11-09T04:44:49.645Z,17.64
2017-11-09T04:46:02.436Z,17.71
2017-11-09T04:47:14.683Z,17.68
2017-11-09T04:48:26.421Z,17.62
2017-11-09T04:49:39.213Z,17.63
2017-11-09T04:50:52.013Z,17.62
2017-11-09T04:52:04.835Z,17.55
2017-11-09T04:53:17.615Z,17.46
2017-11-09T04:54:29.859Z,17.41
2017-11-09T04:55:42.616Z,17.43
2017-11-09T04:56:54.899Z,17.37
2017-11-09T04:58:07.692Z,17.31
2017-11-09T04:59:19.922Z,17.44
2017-11-09T05:00:32.710Z,17.41
2017-11-09T05:01:45.541Z,17.33
2017-11-09T05:02:57.302Z,17.34
2017-11-09T05:04:10.107Z,17.3
2017-11-09T05:05:22.878Z,17.34
2017-11-09T05:06:36.228Z,17.34
2017-11-09T05:07:48.506Z,17.26
2017-11-09T05:09:01.805Z,17.3
2017-11-09T05:10:14.057Z,17.43
2017-11-09T05:11:24.714Z,17.19
2017-11-09T05:12:38.068Z,17.16
2017-11-09T05:13:50.848Z,17.21
2017-11-09T05:15:03.069Z,17.22
2017-11-09T05:16:16.424Z,17.11
2017-11-09T05:17:29.195Z,17.21
2017-11-09T05:18:41.960Z,17.18
2017-11-09T05:19:53.687Z,17.18
2017-11-09T05:21:06.474Z,17.19
2017-11-09T05:22:18.752Z,17.18
2017-11-09T05:23:30.473Z,17.18
2017-11-09T05:24:42.947Z,17.11
2017-11-09T05:25:56.284Z,17.14
2017-11-09T05:27:09.103Z,17.04
2017-11-09T05:28:53.064Z,16.96
2017-11-09T05:30:04.775Z,16.89
2017-11-09T05:31:17.575Z,16.83
2017-11-09T05:32:30.376Z,16.89
2017-11-09T05:33:43.207Z,16.88
2017-11-09T05:34:56.009Z,16.82
2017-11-09T05:36:09.331Z,16.96
2017-11-09T05:37:22.165Z,16.82
2017-11-09T05:38:34.416Z,16.79
2017-11-09T05:39:46.157Z,16.81
2017-11-09T05:40:58.934Z,16.89
2017-11-09T05:42:11.766Z,16.83
2017-11-09T05:43:24.015Z,16.86
2017-11-09T05:44:37.320Z,16.83
2017-11-09T05:45:50.626Z,16.93
2017-11-09T05:47:03.446Z,16.94
2017-11-09T05:48:16.766Z,16.97
2017-11-09T05:49:29.025Z,16.96
2017-11-09T05:50:42.346Z,16.91
2017-11-09T05:51:54.621Z,16.88
2017-11-09T05:53:07.372Z,16.78
2017-11-09T05:54:20.176Z,16.79
2017-11-09T05:55:32.431Z,16.85
2017-11-09T05:56:45.715Z,16.97
2017-11-09T05:57:58.500Z,16.81
2017-11-09T05:59:11.271Z,16.86
2017-11-09T06:00:23.011Z,16.85
2017-11-09T06:01:36.332Z,16.85
2017-11-09T06:02:49.616Z,16.85
2017-11-09T06:04:02.409Z,16.85
2017-11-09T06:05:14.663Z,16.81
2017-11-09T06:06:27.432Z,16.85
2017-11-09T06:07:40.210Z,16.83
2017-11-09T06:08:52.498Z,16.89
2017-11-09T06:10:05.295Z,16.82
2017-11-09T06:11:18.117Z,16.86
2017-11-09T06:12:30.379Z,16.82
2017-11-09T06:13:43.697Z,16.75
2017-11-09T06:14:57.040Z,16.75
2017-11-09T06:16:09.840Z,16.86
2017-11-09T06:17:22.628Z,16.76
2017-11-09T06:18:35.418Z,16.79
2017-11-09T06:19:48.214Z,16.86
2017-11-09T06:21:01.542Z,16.86
2017-11-09T06:22:13.245Z,16.86
2017-11-09T06:23:26.104Z,16.82
2017-11-09T06:24:39.467Z,16.88
2017-11-09T06:25:51.676Z,16.91
2017-11-09T06:27:04.479Z,16.89
2017-11-09T06:28:17.829Z,16.89
2017-11-09T06:29:30.636Z,16.86
2017-11-09T06:30:43.956Z,16.89
2017-11-09T06:31:56.735Z,16.85
2017-11-09T06:33:10.067Z,16.82
2017-11-09T06:34:22.821Z,16.82
2017-11-09T06:35:36.148Z,16.88
2017-11-09T06:36:48.925Z,16.85
2017-11-09T06:38:01.661Z,16.78
2017-11-09T06:39:13.883Z,16.91
2017-11-09T06:40:26.700Z,16.83
2017-11-09T06:41:39.445Z,16.96
2017-11-09T06:42:52.259Z,16.79
2017-11-09T06:44:04.508Z,16.83
2017-11-09T06:45:17.864Z,16.85
2017-11-09T06:46:31.419Z,16.85
2017-11-09T06:47:44.776Z,16.86
2017-11-09T06:48:58.137Z,16.86
2017-11-09T06:50:11.490Z,16.86
2017-11-09T06:51:23.207Z,16.89
2017-11-09T06:52:36.577Z,16.83
2017-11-09T06:53:49.916Z,16.85
2017-11-09T06:55:03.261Z,16.89
2017-11-09T06:56:16.049Z,16.86
2017-11-09T06:57:28.817Z,16.86
2017-11-09T06:58:41.048Z,16.91
2017-11-09T06:59:53.825Z,16.89
2017-11-09T07:01:06.087Z,16.96
2017-11-09T07:02:18.864Z,16.97
2017-11-09T07:03:31.643Z,16.98
2017-11-09T07:04:45.014Z,16.96
2017-11-09T07:05:58.379Z,17.06
2017-11-09T07:07:11.235Z,17
2017-11-09T07:08:24.537Z,16.98
2017-11-09T07:09:37.345Z,17.07
2017-11-09T07:10:50.679Z,17
2017-11-09T07:12:03.476Z,17.04
2017-11-09T07:13:16.238Z,17.03
2017-11-09T07:14:29.567Z,17
2017-11-09T07:15:42.938Z,16.98
2017-11-09T07:16:55.201Z,17.06
2017-11-09T07:18:07.985Z,17.01
2017-11-09T07:19:20.219Z,17.04
2017-11-09T07:20:33.593Z,17.07
2017-11-09T07:21:46.906Z,16.98
2017-11-09T07:22:59.716Z,16.94
2017-11-09T07:24:11.983Z,16.97
2017-11-09T07:25:24.726Z,17.07
2017-11-09T07:26:38.083Z,17.11
2017-11-09T07:27:51.393Z,17.04
2017-11-09T07:29:04.724Z,17.15
2017-11-09T07:30:17.719Z,17.03
2017-11-09T07:31:30.573Z,17.21
2017-11-09T07:32:43.920Z,17.03
2017-11-09T07:33:56.731Z,17.06
2017-11-09T07:35:07.900Z,17.06
2017-11-09T07:36:21.647Z,17.03
2017-11-09T07:37:34.968Z,17.04
2017-11-09T07:38:48.323Z,16.96
2017-11-09T07:40:01.110Z,16.97
2017-11-09T07:41:13.922Z,16.98
2017-11-09T07:42:26.213Z,17.03
2017-11-09T07:43:39.010Z,16.94
2017-11-09T07:44:52.341Z,17.07
2017-11-09T07:46:04.596Z,17.01
2017-11-09T07:47:16.870Z,17
2017-11-09T07:48:30.220Z,16.98
2017-11-09T07:49:42.507Z,17.04
2017-11-09T07:50:55.276Z,16.97
2017-11-09T07:52:08.124Z,17
2017-11-09T07:53:21.478Z,17.03
2017-11-09T07:54:33.213Z,17.07
2017-11-09T07:55:45.434Z,17.15
2017-11-09T07:56:58.419Z,17.16
2017-11-09T07:58:10.145Z,17.08
2017-11-09T07:59:23.465Z,17.03
2017-11-09T08:00:36.263Z,17.12
2017-11-09T08:01:49.592Z,17.14
2017-11-09T08:03:02.945Z,17.14
2017-11-09T08:04:16.241Z,17.11
2017-11-09T08:05:29.094Z,17.14
2017-11-09T08:06:40.832Z,17.01
2017-11-09T08:07:53.647Z,16.96
2017-11-09T08:09:06.946Z,17.07
2017-11-09T08:10:19.755Z,17.06
2017-11-09T08:11:31.974Z,17.18
2017-11-09T08:12:44.253Z,17.14
2017-11-09T08:13:56.530Z,17.11
2017-11-09T08:15:08.808Z,17.14
2017-11-09T08:16:22.132Z,17.04
2017-11-09T08:17:34.957Z,17.04
2017-11-09T08:18:47.238Z,17.19
2017-11-09T08:19:59.493Z,17.22
2017-11-09T08:21:12.294Z,17.16
2017-11-09T08:22:25.645Z,17.18
2017-11-09T08:23:37.871Z,17.16
2017-11-09T08:24:55.768Z,17.23
2017-11-09T08:26:21.602Z,17.25
2017-11-09T08:27:43.247Z,17.16
2017-11-09T08:29:04.690Z,17.18
2017-11-09T08:30:28.317Z,17.19
2017-11-09T08:31:50.115Z,17.16
2017-11-09T08:33:05.445Z,17.22
2017-11-09T08:34:32.172Z,17.19
2017-11-09T08:35:45.494Z,17.15
2017-11-09T08:36:58.286Z,17.15
2017-11-09T08:38:11.079Z,17.16
2017-11-09T08:39:24.384Z,17.14
2017-11-09T08:40:37.722Z,17.06
2017-11-09T08:41:51.018Z,17.15
2017-11-09T08:43:03.338Z,17.14
2017-11-09T08:44:16.129Z,17.04
2017-11-09T08:45:28.436Z,17.14
2017-11-09T08:46:40.761Z,17.11
2017-11-09T08:47:53.024Z,17.19
2017-11-09T08:49:05.841Z,17.14
2017-11-09T08:50:18.645Z,17.14
2017-11-09T08:51:31.987Z,17.16
2017-11-09T08:52:44.798Z,17.18
2017-11-09T08:53:58.085Z,17.18
2017-11-09T08:55:10.890Z,17.18
2017-11-09T08:56:23.680Z,17.16
2017-11-09T08:57:36.475Z,17.21
2017-11-09T08:58:49.288Z,17.21
2017-11-09T09:00:02.108Z,17.25
2017-11-09T09:01:14.888Z,17.31
2017-11-09T09:02:27.681Z,17.34
2017-11-09T09:03:40.998Z,17.36
2017-11-09T09:04:53.763Z,17.36
2017-11-09T09:06:06.534Z,17.43
2017-11-09T09:07:18.813Z,17.43
2017-11-09T09:08:30.533Z,17.49
2017-11-09T09:09:43.336Z,17.44
2017-11-09T09:10:56.154Z,17.51
2017-11-09T09:12:09.536Z,17.44
2017-11-09T09:13:21.851Z,17.52
2017-11-09T09:14:35.166Z,17.49
2017-11-09T09:15:47.921Z,17.38
2017-11-09T09:17:01.233Z,17.49
2017-11-09T09:18:14.503Z,17.48
2017-11-09T09:19:27.332Z,17.54
2017-11-09T09:20:40.654Z,17.51
2017-11-09T09:21:52.898Z,17.55
2017-11-09T09:23:05.700Z,17.54
2017-11-09T09:24:19.052Z,17.64
2017-11-09T09:25:31.839Z,17.7
2017-11-09T09:26:44.106Z,17.7
2017-11-09T09:27:56.907Z,17.86
2017-11-09T09:29:09.698Z,17.87
2017-11-09T09:30:22.477Z,17.97
2017-11-09T09:31:35.270Z,18.1
2017-11-09T09:32:49.395Z,18.07
2017-11-09T09:34:08.897Z,18.23
2017-11-09T09:35:31.538Z,18.21
2017-11-09T09:36:47.228Z,18.26
2017-11-09T09:38:01.990Z,18.29
2017-11-09T09:39:19.534Z,18.37
2017-11-09T09:40:42.340Z,18.51
2017-11-09T09:42:03.944Z,18.55
2017-11-09T09:43:16.280Z,18.63
2017-11-09T09:44:29.627Z,18.63
2017-11-09T09:45:42.456Z,18.78
2017-11-09T09:46:55.249Z,18.84
2017-11-09T09:48:07.518Z,18.8
2017-11-09T09:49:20.330Z,18.66
2017-11-09T09:50:33.167Z,18.51
2017-11-09T09:51:45.470Z,18.47
2017-11-09T09:52:58.272Z,18.5
2017-11-09T09:54:11.627Z,18.58
2017-11-09T09:55:24.415Z,18.41
2017-11-09T09:56:37.218Z,18.5
2017-11-09T09:57:49.568Z,18.52
2017-11-09T09:59:01.852Z,18.57
2017-11-09T10:00:14.100Z,18.65
2017-11-09T10:01:27.437Z,18.73
2017-11-09T10:02:40.730Z,18.85
2017-11-09T10:03:54.030Z,19.02
2017-11-09T10:05:05.222Z,19.26
2017-11-09T10:06:18.073Z,19.47
2017-11-09T10:07:30.862Z,19.69
2017-11-09T10:08:43.651Z,20.1
2017-11-09T10:09:56.953Z,20.26
2017-11-09T10:11:08.700Z,20.29
2017-11-09T10:12:20.952Z,20.55
2017-11-09T10:13:34.263Z,20.54
2017-11-09T10:14:47.062Z,20.51
2017-11-09T10:15:59.338Z,20.58
2017-11-09T10:17:12.129Z,20.38
2017-11-09T10:18:24.985Z,20.29
2017-11-09T10:19:37.271Z,20.16
2017-11-09T10:20:49.533Z,20.2
2017-11-09T10:22:02.899Z,20.31
2017-11-09T10:23:15.184Z,20.58
2017-11-09T10:24:27.961Z,20.61
2017-11-09T10:25:40.789Z,20.79
2017-11-09T10:26:54.164Z,20.76
2017-11-09T10:28:06.430Z,20.92
2017-11-09T10:29:19.797Z,21.01
2017-11-09T10:30:33.114Z,21.14
2017-11-09T10:31:45.878Z,21.31
2017-11-09T10:32:58.704Z,21.4
2017-11-09T10:34:12.012Z,21.38
2017-11-09T10:35:23.739Z,21.44
2017-11-09T10:36:36.565Z,21.53
2017-11-09T10:37:49.395Z,21.54
2017-11-09T10:39:02.179Z,21.49
2017-11-09T10:40:14.645Z,21.54
2017-11-09T10:41:28.000Z,21.68
2017-11-09T10:42:40.803Z,21.74
2017-11-09T10:43:53.072Z,21.74
2017-11-09T10:45:05.898Z,21.67
2017-11-09T10:46:19.235Z,21.54
2017-11-09T10:47:32.528Z,21.54
2017-11-09T10:48:45.861Z,21.58
2017-11-09T10:49:58.697Z,21.35
2017-11-09T10:51:12.036Z,21.31
2017-11-09T10:52:23.816Z,21.09
2017-11-09T10:53:36.765Z,21.07
2017-11-09T10:54:49.044Z,21.09
2017-11-09T10:56:00.792Z,21.1
2017-11-09T10:57:12.523Z,21.03
2017-11-09T10:58:25.853Z,20.88
2017-11-09T10:59:38.670Z,20.87
2017-11-09T11:00:52.036Z,20.79
2017-11-09T11:02:04.338Z,20.76
2017-11-09T11:03:17.137Z,20.91
2017-11-09T11:04:29.945Z,20.99
2017-11-09T11:05:42.771Z,21.25
2017-11-09T11:06:55.559Z,21.65
2017-11-09T11:08:09.124Z,22.09
2017-11-09T11:09:21.974Z,22.4
2017-11-09T11:10:35.297Z,22.9
2017-11-09T11:11:48.679Z,23.43
2017-11-09T11:13:02.099Z,23.91
2017-11-09T11:14:14.897Z,24.37
2017-11-09T11:15:26.606Z,24.61
2017-11-09T11:16:38.883Z,24.8
2017-11-09T11:17:52.252Z,24.93
2017-11-09T11:19:04.548Z,24.95
2017-11-09T11:20:17.355Z,24.61
2017-11-09T11:21:29.635Z,24.64
2017-11-09T11:22:42.443Z,24.57
2017-11-09T11:23:55.300Z,24.55
2017-11-09T11:25:08.099Z,24.5
2017-11-09T11:26:20.922Z,24.5
2017-11-09T11:27:33.745Z,24.39
2017-11-09T11:28:46.071Z,24.22
2017-11-09T11:29:58.848Z,24.24
2017-11-09T11:31:11.071Z,24.1
2017-11-09T11:32:23.835Z,24.21
2017-11-09T11:33:36.174Z,24.22
2017-11-09T11:34:49.565Z,24.24
2017-11-09T11:36:02.967Z,24.21
2017-11-09T11:37:14.174Z,24.21
2017-11-09T11:38:26.491Z,24.32
2017-11-09T11:39:39.327Z,24.52
2017-11-09T11:40:51.031Z,24.64
2017-11-09T11:42:04.399Z,24.58
2017-11-09T11:43:17.246Z,24.68
2017-11-09T11:44:29.512Z,24.78
2017-11-09T11:45:42.874Z,24.84
2017-11-09T11:46:55.714Z,24.65
2017-11-09T11:48:08.704Z,24.34
2017-11-09T11:49:20.991Z,24.05
2017-11-09T11:50:33.839Z,23.91
2017-11-09T11:51:46.646Z,23.94
2017-11-09T11:52:58.386Z,24.1
2017-11-09T11:54:11.160Z,24.39
2017-11-09T11:55:23.565Z,24.93
2017-11-09T11:56:36.501Z,25.52
2017-11-09T11:57:48.751Z,25.57
2017-11-09T11:59:02.098Z,25.14
2017-11-09T12:00:15.063Z,24.84
2017-11-09T12:01:27.340Z,24.95
2017-11-09T12:02:40.242Z,25.2
2017-11-09T12:03:53.063Z,25.36
2017-11-09T12:05:05.873Z,25.32
2017-11-09T12:06:19.252Z,24.91
2017-11-09T12:07:32.053Z,24.95
2017-11-09T12:08:45.402Z,25.09
2017-11-09T12:09:57.678Z,25.3
2017-11-09T12:11:10.476Z,25.36
2017-11-09T12:12:23.257Z,25.55
2017-11-09T12:13:36.078Z,25.39
2017-11-09T12:14:48.331Z,25.33
2017-11-09T12:16:01.711Z,25.42
2017-11-09T12:17:15.094Z,25.69
2017-11-09T12:18:28.498Z,26.07
2017-11-09T12:19:41.845Z,25.92
2017-11-09T12:20:54.131Z,25.42
2017-11-09T12:22:07.564Z,25.38
2017-11-09T12:23:20.432Z,25.67
2017-11-09T12:24:33.784Z,25.87
2017-11-09T12:25:46.073Z,26.05
2017-11-09T12:26:59.400Z,25.94
2017-11-09T12:28:12.777Z,26.07
2017-11-09T12:29:25.120Z,26.48
2017-11-09T12:30:37.973Z,26.76
2017-11-09T12:31:51.525Z,27.14
2017-11-09T12:33:04.394Z,27.34
2017-11-09T12:34:16.118Z,27.57
2017-11-09T12:35:28.940Z,28.12
2017-11-09T12:36:41.623Z,28.33
2017-11-09T12:37:54.503Z,28.49
2017-11-09T12:39:07.312Z,29.09
2017-11-09T12:40:20.090Z,28.92
2017-11-09T12:41:32.896Z,28.15
2017-11-09T12:42:45.241Z,27.44
2017-11-09T12:43:58.075Z,27.12
2017-11-09T12:45:11.418Z,26.77
2017-11-09T12:46:23.769Z,26.1
2017-11-09T12:47:36.086Z,25.72
2017-11-09T12:48:48.378Z,25.39
2017-11-09T12:50:01.949Z,24.76
2017-11-09T12:51:14.881Z,24.32
2017-11-09T12:52:28.256Z,24.16
2017-11-09T12:53:41.289Z,24.24
2017-11-09T12:54:54.111Z,24.58
2017-11-09T12:56:06.913Z,25.13
2017-11-09T12:57:18.694Z,25.65
2017-11-09T12:58:30.954Z,26.55
2017-11-09T12:59:43.753Z,27.03
2017-11-09T13:00:57.089Z,27.36
2017-11-09T13:02:09.915Z,27.31
2017-11-09T13:03:22.581Z,27.29
2017-11-09T13:04:35.397Z,27.84
2017-11-09T13:05:48.737Z,28.18
2017-11-09T13:07:01.624Z,28.54
2017-11-09T13:08:14.484Z,28.7
2017-11-09T13:09:27.313Z,28.86
2017-11-09T13:10:40.124Z,28.95
2017-11-09T13:11:53.154Z,29.33
2017-11-09T13:13:05.992Z,29.28
2017-11-09T13:14:18.882Z,28.78
2017-11-09T13:15:32.176Z,27.92
2017-11-09T13:16:44.432Z,27.1
2017-11-09T13:17:56.115Z,26.89
2017-11-09T13:19:09.435Z,27.09
2017-11-09T13:20:22.283Z,27.62
2017-11-09T13:21:34.022Z,28.29
2017-11-09T13:22:47.949Z,28.61
2017-11-09T13:24:01.346Z,28.81
2017-11-09T13:25:14.719Z,28.74
2017-11-09T13:26:27.622Z,28.48
2017-11-09T13:27:40.479Z,28.33
2017-11-09T13:28:53.794Z,28.3
2017-11-09T13:30:05.539Z,27.97
2017-11-09T13:31:18.903Z,27.84
2017-11-09T13:32:32.274Z,27.51
2017-11-09T13:33:44.571Z,26.85
2017-11-09T13:34:57.943Z,26.52
2017-11-09T13:36:11.308Z,26.28
2017-11-09T13:37:23.043Z,26.25
2017-11-09T13:38:36.468Z,26.52
2017-11-09T13:39:49.987Z,26.81
2017-11-09T13:41:03.375Z,27.19
2017-11-09T13:42:16.217Z,27.46
2017-11-09T13:43:28.559Z,27.54
2017-11-09T13:44:41.892Z,27.75
2017-11-09T13:45:54.720Z,27.32
2017-11-09T13:47:08.083Z,26.89
2017-11-09T13:48:20.891Z,26.58
2017-11-09T13:49:34.256Z,26.43
2017-11-09T13:50:47.066Z,26.5
2017-11-09T13:51:59.871Z,26.63
2017-11-09T13:53:13.226Z,26.88
2017-11-09T13:54:25.498Z,27.22
2017-11-09T13:55:38.316Z,27.54
2017-11-09T13:56:51.200Z,28.07
2017-11-09T13:58:03.994Z,28.4
2017-11-09T13:59:16.820Z,28.78
2017-11-09T14:00:29.645Z,28.93
2017-11-09T14:01:41.947Z,29.06
2017-11-09T14:02:55.271Z,29.08
2017-11-09T14:04:08.638Z,29.11
2017-11-09T14:05:21.452Z,28.98
2017-11-09T14:06:34.335Z,28.68
2017-11-09T14:07:46.627Z,28.49
2017-11-09T14:08:59.995Z,28.18
2017-11-09T14:10:12.260Z,28.19
2017-11-09T14:11:24.486Z,28.49
2017-11-09T14:12:36.836Z,28.89
2017-11-09T14:13:50.209Z,28.85
2017-11-09T14:15:03.603Z,28.49
2017-11-09T14:16:16.962Z,28.03
2017-11-09T14:17:29.268Z,28.06
2017-11-09T14:18:41.506Z,28.03
2017-11-09T14:19:54.846Z,27.79
2017-11-09T14:21:07.648Z,27.74
2017-11-09T14:22:19.911Z,28.54
2017-11-09T14:23:31.644Z,29.23
2017-11-09T14:24:43.921Z,30.07
2017-11-09T14:25:56.754Z,30.46
2017-11-09T14:27:09.556Z,29.94
2017-11-09T14:28:22.347Z,29.18
2017-11-09T14:29:35.190Z,28.66
2017-11-09T14:30:48.525Z,28.18
2017-11-09T14:32:01.353Z,28.21
2017-11-09T14:33:13.693Z,28.36
2017-11-09T14:34:26.522Z,28.46
2017-11-09T14:35:39.347Z,29.09
2017-11-09T14:36:52.702Z,29.74
2017-11-09T14:38:05.725Z,30.53
2017-11-09T14:39:18.765Z,30.95
2017-11-09T14:40:32.153Z,31.01
2017-11-09T14:41:43.882Z,31.01
2017-11-09T14:42:56.749Z,31.14
2017-11-09T14:44:09.046Z,31.16
2017-11-09T14:45:21.854Z,30.8
2017-11-09T14:46:34.636Z,30.43
2017-11-09T14:47:46.914Z,29.92
2017-11-09T14:48:59.755Z,28.95
2017-11-09T14:50:12.061Z,28.58
2017-11-09T14:51:24.843Z,28.7
2017-11-09T14:52:38.191Z,28.81
2017-11-09T14:53:51.004Z,28.9
2017-11-09T14:55:03.833Z,29.23
2017-11-09T14:56:16.131Z,29.28
2017-11-09T14:57:29.471Z,29.43
2017-11-09T14:58:41.758Z,29.11
2017-11-09T14:59:54.546Z,29.05
2017-11-09T15:01:07.344Z,29.21
2017-11-09T15:02:20.219Z,29.57
2017-11-09T15:03:33.546Z,29.11
2017-11-09T15:04:45.478Z,28.66
2017-11-09T15:05:58.283Z,28.89
2017-11-09T15:07:11.062Z,29.71
2017-11-09T15:08:24.500Z,29.9
2017-11-09T15:09:37.296Z,29.87
2017-11-09T15:10:50.141Z,30.1
2017-11-09T15:12:02.523Z,30.34
2017-11-09T15:13:14.924Z,30.47
2017-11-09T15:14:27.768Z,30.35
2017-11-09T15:15:40.081Z,30.54
2017-11-09T15:16:52.922Z,31.1
2017-11-09T15:18:06.269Z,31.53
2017-11-09T15:19:19.092Z,31.61
2017-11-09T15:20:32.457Z,31.65
2017-11-09T15:21:45.797Z,31.69
2017-11-09T15:22:58.626Z,31.31
2017-11-09T15:24:10.902Z,30.46
2017-11-09T15:25:23.674Z,29.94
2017-11-09T15:26:36.994Z,29.41
2017-11-09T15:27:49.815Z,28.74
2017-11-09T15:29:03.172Z,28.37
2017-11-09T15:30:15.973Z,28.19
2017-11-09T15:31:28.771Z,28.19
2017-11-09T15:32:41.601Z,28.18
2017-11-09T15:33:54.404Z,27.85
2017-11-09T15:35:06.712Z,27.79
2017-11-09T15:36:18.446Z,27.67
2017-11-09T15:37:30.763Z,27.54
2017-11-09T15:38:44.131Z,27.57
2017-11-09T15:39:56.975Z,27.09
2017-11-09T15:41:09.204Z,26.92
2017-11-09T15:42:21.475Z,26.7
2017-11-09T15:43:33.723Z,26.73